sensor_id;sensor_type;location;lat;lon;timestamp;P1;durP1;ratioP1;P2;durP2;ratioP2
21905;SDS011;11117;48.644;9.006;2022-07-18T00:02:20;5.47;;;2.30;;
21905;SDS011;11117;48.644;9.006;2022-07-18T00:04:46;3.13;;;2.30;;
21905;SDS011;11117;48.644;9.006;2022-07-18T00:07:12;4.57;;;2.25;;
21905;SDS011;11117;48.644;9.006;2022-07-18T00:09:38;3.70;;;2.28;;
21905;SDS011;11117;48.644;9.006;2022-07-18T00:12:05;6.32;;;2.40;;
21905;SDS011;11117;48.644;9.006;2022-07-18T00:14:32;2.67;;;2.10;;
21905;SDS011;11117;48.644;9.006;2022-07-18T00:16:57;3.77;;;2.10;;
21905;SDS011;11117;48.644;9.006;2022-07-18T00:19:23;2.57;;;2.20;;
21905;SDS011;11117;48.644;9.006;2022-07-18T00:21:49;3.73;;;2.40;;
21905;SDS011;11117;48.644;9.006;2022-07-18T00:24:14;2.70;;;2.28;;
21905;SDS011;11117;48.644;9.006;2022-07-18T00:26:40;3.97;;;2.27;;
21905;SDS011;11117;48.644;9.006;2022-07-18T00:29:05;4.30;;;2.37;;
21905;SDS011;11117;48.644;9.006;2022-07-18T00:31:31;4.80;;;2.70;;
21905;SDS011;11117;48.644;9.006;2022-07-18T00:33:57;5.57;;;2.53;;
21905;SDS011;11117;48.644;9.006;2022-07-18T00:36:22;3.17;;;2.57;;
21905;SDS011;11117;48.644;9.006;2022-07-18T00:38:48;3.73;;;2.83;;
21905;SDS011;11117;48.644;9.006;2022-07-18T00:41:14;7.07;;;2.60;;
21905;SDS011;11117;48.644;9.006;2022-07-18T00:43:40;4.93;;;2.70;;
21905;SDS011;11117;48.644;9.006;2022-07-18T00:46:06;4.97;;;2.80;;
21905;SDS011;11117;48.644;9.006;2022-07-18T00:48:31;5.07;;;2.83;;
21905;SDS011;11117;48.644;9.006;2022-07-18T00:50:57;10.30;;;3.07;;
21905;SDS011;11117;48.644;9.006;2022-07-18T00:53:22;6.17;;;2.53;;
21905;SDS011;11117;48.644;9.006;2022-07-18T00:55:48;9.20;;;2.73;;
21905;SDS011;11117;48.644;9.006;2022-07-18T00:58:14;2.80;;;2.30;;
21905;SDS011;11117;48.644;9.006;2022-07-18T01:00:40;5.63;;;2.40;;
21905;SDS011;11117;48.644;9.006;2022-07-18T01:03:06;6.07;;;2.90;;
21905;SDS011;11117;48.644;9.006;2022-07-18T01:05:31;8.57;;;2.90;;
21905;SDS011;11117;48.644;9.006;2022-07-18T01:07:57;6.40;;;2.90;;
21905;SDS011;11117;48.644;9.006;2022-07-18T01:10:23;4.43;;;2.90;;
21905;SDS011;11117;48.644;9.006;2022-07-18T01:12:48;5.07;;;2.93;;
21905;SDS011;11117;48.644;9.006;2022-07-18T01:15:14;5.67;;;2.60;;
21905;SDS011;11117;48.644;9.006;2022-07-18T01:17:40;4.40;;;2.70;;
21905;SDS011;11117;48.644;9.006;2022-07-18T01:20:06;4.47;;;2.87;;
21905;SDS011;11117;48.644;9.006;2022-07-18T01:22:32;4.90;;;2.83;;
21905;SDS011;11117;48.644;9.006;2022-07-18T01:24:58;5.43;;;2.70;;
21905;SDS011;11117;48.644;9.006;2022-07-18T01:27:24;6.60;;;2.80;;
21905;SDS011;11117;48.644;9.006;2022-07-18T01:29:50;5.97;;;2.67;;
21905;SDS011;11117;48.644;9.006;2022-07-18T01:32:19;6.63;;;2.97;;
21905;SDS011;11117;48.644;9.006;2022-07-18T01:34:46;6.27;;;2.80;;
21905;SDS011;11117;48.644;9.006;2022-07-18T01:37:13;4.50;;;2.57;;
21905;SDS011;11117;48.644;9.006;2022-07-18T01:39:39;4.80;;;2.80;;
21905;SDS011;11117;48.644;9.006;2022-07-18T01:42:05;2.50;;;2.30;;
21905;SDS011;11117;48.644;9.006;2022-07-18T01:44:33;5.50;;;2.60;;
21905;SDS011;11117;48.644;9.006;2022-07-18T01:47:00;4.67;;;2.60;;
21905;SDS011;11117;48.644;9.006;2022-07-18T01:49:26;4.73;;;2.67;;
21905;SDS011;11117;48.644;9.006;2022-07-18T01:51:53;8.30;;;2.67;;
21905;SDS011;11117;48.644;9.006;2022-07-18T01:54:23;8.03;;;2.80;;
21905;SDS011;11117;48.644;9.006;2022-07-18T01:56:51;3.10;;;2.70;;
21905;SDS011;11117;48.644;9.006;2022-07-18T01:59:16;5.07;;;2.93;;
21905;SDS011;11117;48.644;9.006;2022-07-18T02:01:43;8.40;;;2.73;;
21905;SDS011;11117;48.644;9.006;2022-07-18T02:04:09;6.03;;;2.90;;
21905;SDS011;11117;48.644;9.006;2022-07-18T02:06:35;4.13;;;3.07;;
21905;SDS011;11117;48.644;9.006;2022-07-18T02:09:01;3.60;;;2.80;;
21905;SDS011;11117;48.644;9.006;2022-07-18T02:11:27;3.10;;;2.80;;
21905;SDS011;11117;48.644;9.006;2022-07-18T02:13:53;6.67;;;2.50;;
21905;SDS011;11117;48.644;9.006;2022-07-18T02:16:19;4.30;;;2.40;;
21905;SDS011;11117;48.644;9.006;2022-07-18T02:18:45;4.83;;;2.83;;
21905;SDS011;11117;48.644;9.006;2022-07-18T02:21:11;2.77;;;2.50;;
21905;SDS011;11117;48.644;9.006;2022-07-18T02:23:36;6.77;;;3.57;;
21905;SDS011;11117;48.644;9.006;2022-07-18T02:26:03;5.80;;;2.90;;
21905;SDS011;11117;48.644;9.006;2022-07-18T02:28:31;4.03;;;2.70;;
21905;SDS011;11117;48.644;9.006;2022-07-18T02:30:57;3.07;;;2.40;;
21905;SDS011;11117;48.644;9.006;2022-07-18T02:33:22;4.83;;;2.53;;
21905;SDS011;11117;48.644;9.006;2022-07-18T02:35:51;5.07;;;2.50;;
21905;SDS011;11117;48.644;9.006;2022-07-18T02:38:17;6.43;;;2.40;;
21905;SDS011;11117;48.644;9.006;2022-07-18T02:40:42;5.20;;;2.60;;
21905;SDS011;11117;48.644;9.006;2022-07-18T02:43:08;9.80;;;5.00;;
21905;SDS011;11117;48.644;9.006;2022-07-18T02:45:33;9.27;;;4.77;;
21905;SDS011;11117;48.644;9.006;2022-07-18T02:47:59;5.97;;;3.40;;
21905;SDS011;11117;48.644;9.006;2022-07-18T02:50:25;4.33;;;3.07;;
21905;SDS011;11117;48.644;9.006;2022-07-18T02:52:51;3.00;;;2.17;;
21905;SDS011;11117;48.644;9.006;2022-07-18T02:55:17;2.87;;;2.40;;
21905;SDS011;11117;48.644;9.006;2022-07-18T02:57:42;4.53;;;2.50;;
21905;SDS011;11117;48.644;9.006;2022-07-18T03:00:09;2.97;;;2.27;;
21905;SDS011;11117;48.644;9.006;2022-07-18T03:02:36;5.47;;;2.40;;
21905;SDS011;11117;48.644;9.006;2022-07-18T03:05:03;3.17;;;2.20;;
21905;SDS011;11117;48.644;9.006;2022-07-18T03:07:31;3.27;;;2.23;;
21905;SDS011;11117;48.644;9.006;2022-07-18T03:09:57;4.03;;;1.97;;
21905;SDS011;11117;48.644;9.006;2022-07-18T03:12:24;5.47;;;2.33;;
21905;SDS011;11117;48.644;9.006;2022-07-18T03:14:49;20.73;;;9.53;;
21905;SDS011;11117;48.644;9.006;2022-07-18T03:17:15;30.80;;;14.53;;
21905;SDS011;11117;48.644;9.006;2022-07-18T03:19:41;22.37;;;9.63;;
21905;SDS011;11117;48.644;9.006;2022-07-18T03:22:06;8.77;;;5.07;;
21905;SDS011;11117;48.644;9.006;2022-07-18T03:24:32;5.43;;;2.80;;
21905;SDS011;11117;48.644;9.006;2022-07-18T03:26:57;4.83;;;2.83;;
21905;SDS011;11117;48.644;9.006;2022-07-18T03:29:24;5.97;;;2.30;;
21905;SDS011;11117;48.644;9.006;2022-07-18T03:31:50;5.47;;;2.73;;
21905;SDS011;11117;48.644;9.006;2022-07-18T03:34:15;3.97;;;2.50;;
21905;SDS011;11117;48.644;9.006;2022-07-18T03:36:41;2.53;;;2.20;;
21905;SDS011;11117;48.644;9.006;2022-07-18T03:39:07;3.57;;;2.60;;
21905;SDS011;11117;48.644;9.006;2022-07-18T03:41:34;3.70;;;2.83;;
21905;SDS011;11117;48.644;9.006;2022-07-18T03:44:01;4.63;;;2.37;;
21905;SDS011;11117;48.644;9.006;2022-07-18T03:46:30;5.37;;;2.30;;
21905;SDS011;11117;48.644;9.006;2022-07-18T03:48:56;4.40;;;2.10;;
21905;SDS011;11117;48.644;9.006;2022-07-18T03:51:22;2.43;;;2.10;;
21905;SDS011;11117;48.644;9.006;2022-07-18T03:53:48;5.63;;;2.20;;
21905;SDS011;11117;48.644;9.006;2022-07-18T03:56:14;3.77;;;2.17;;
21905;SDS011;11117;48.644;9.006;2022-07-18T03:58:40;7.07;;;2.37;;
21905;SDS011;11117;48.644;9.006;2022-07-18T04:01:09;4.13;;;2.53;;
21905;SDS011;11117;48.644;9.006;2022-07-18T04:03:35;6.07;;;2.27;;
21905;SDS011;11117;48.644;9.006;2022-07-18T04:06:01;3.47;;;2.20;;
21905;SDS011;11117;48.644;9.006;2022-07-18T04:08:26;7.37;;;2.23;;
21905;SDS011;11117;48.644;9.006;2022-07-18T04:10:52;4.63;;;2.33;;
21905;SDS011;11117;48.644;9.006;2022-07-18T04:13:17;6.27;;;2.13;;
21905;SDS011;11117;48.644;9.006;2022-07-18T04:15:44;3.53;;;2.30;;
21905;SDS011;11117;48.644;9.006;2022-07-18T04:18:10;5.13;;;2.50;;
21905;SDS011;11117;48.644;9.006;2022-07-18T04:20:36;5.27;;;4.20;;
21905;SDS011;11117;48.644;9.006;2022-07-18T04:23:04;9.67;;;4.93;;
21905;SDS011;11117;48.644;9.006;2022-07-18T04:25:49;4.63;;;3.10;;
21905;SDS011;11117;48.644;9.006;2022-07-18T04:28:14;3.37;;;2.30;;
21905;SDS011;11117;48.644;9.006;2022-07-18T04:30:40;5.57;;;2.20;;
21905;SDS011;11117;48.644;9.006;2022-07-18T04:33:08;4.03;;;1.93;;
21905;SDS011;11117;48.644;9.006;2022-07-18T04:35:34;3.23;;;1.97;;
21905;SDS011;11117;48.644;9.006;2022-07-18T04:38:00;3.27;;;1.90;;
21905;SDS011;11117;48.644;9.006;2022-07-18T04:40:26;2.13;;;1.93;;
21905;SDS011;11117;48.644;9.006;2022-07-18T04:42:51;9.10;;;2.00;;
21905;SDS011;11117;48.644;9.006;2022-07-18T04:45:17;4.77;;;2.33;;
21905;SDS011;11117;48.644;9.006;2022-07-18T04:47:43;2.17;;;1.92;;
21905;SDS011;11117;48.644;9.006;2022-07-18T04:50:08;4.95;;;1.98;;
21905;SDS011;11117;48.644;9.006;2022-07-18T04:52:38;3.38;;;1.70;;
21905;SDS011;11117;48.644;9.006;2022-07-18T04:55:08;15.43;;;2.50;;
21905;SDS011;11117;48.644;9.006;2022-07-18T04:57:35;5.22;;;2.13;;
21905;SDS011;11117;48.644;9.006;2022-07-18T05:00:04;4.57;;;2.70;;
21905;SDS011;11117;48.644;9.006;2022-07-18T05:02:35;6.55;;;2.28;;
21905;SDS011;11117;48.644;9.006;2022-07-18T05:05:07;3.05;;;1.75;;
21905;SDS011;11117;48.644;9.006;2022-07-18T05:07:34;3.65;;;1.73;;
21905;SDS011;11117;48.644;9.006;2022-07-18T05:09:59;3.72;;;1.63;;
21905;SDS011;11117;48.644;9.006;2022-07-18T05:12:28;4.82;;;1.83;;
21905;SDS011;11117;48.644;9.006;2022-07-18T05:14:54;2.30;;;1.90;;
21905;SDS011;11117;48.644;9.006;2022-07-18T05:17:19;2.80;;;1.80;;
21905;SDS011;11117;48.644;9.006;2022-07-18T05:19:45;2.65;;;1.85;;
21905;SDS011;11117;48.644;9.006;2022-07-18T05:22:14;5.65;;;2.17;;
21905;SDS011;11117;48.644;9.006;2022-07-18T05:24:40;5.45;;;2.40;;
21905;SDS011;11117;48.644;9.006;2022-07-18T05:27:24;6.60;;;2.20;;
21905;SDS011;11117;48.644;9.006;2022-07-18T05:29:50;7.10;;;2.17;;
21905;SDS011;11117;48.644;9.006;2022-07-18T05:32:39;3.75;;;2.03;;
21905;SDS011;11117;48.644;9.006;2022-07-18T05:35:09;2.63;;;2.00;;
21905;SDS011;11117;48.644;9.006;2022-07-18T05:37:47;6.25;;;1.80;;
21905;SDS011;11117;48.644;9.006;2022-07-18T05:40:14;10.85;;;1.90;;
21905;SDS011;11117;48.644;9.006;2022-07-18T05:42:46;2.72;;;1.70;;
21905;SDS011;11117;48.644;9.006;2022-07-18T05:45:30;8.02;;;1.88;;
21905;SDS011;11117;48.644;9.006;2022-07-18T05:48:21;6.68;;;2.50;;
21905;SDS011;11117;48.644;9.006;2022-07-18T05:51:06;4.32;;;1.80;;
21905;SDS011;11117;48.644;9.006;2022-07-18T05:53:43;2.85;;;1.70;;
21905;SDS011;11117;48.644;9.006;2022-07-18T06:03:59;3.97;;;1.90;;
21905;SDS011;11117;48.644;9.006;2022-07-18T06:06:26;3.90;;;1.90;;
21905;SDS011;11117;48.644;9.006;2022-07-18T06:09:19;5.13;;;1.70;;
21905;SDS011;11117;48.644;9.006;2022-07-18T06:12:19;6.22;;;1.70;;
21905;SDS011;11117;48.644;9.006;2022-07-18T06:15:46;5.00;;;1.65;;
21905;SDS011;11117;48.644;9.006;2022-07-18T06:17:59;4.15;;;1.67;;
21905;SDS011;11117;48.644;9.006;2022-07-18T06:20:35;5.45;;;1.90;;
21905;SDS011;11117;48.644;9.006;2022-07-18T06:23:01;4.35;;;1.70;;
21905;SDS011;11117;48.644;9.006;2022-07-18T06:25:26;2.85;;;1.70;;
21905;SDS011;11117;48.644;9.006;2022-07-18T06:28:01;3.58;;;1.70;;
21905;SDS011;11117;48.644;9.006;2022-07-18T06:30:46;2.60;;;1.70;;
21905;SDS011;11117;48.644;9.006;2022-07-18T06:33:38;3.00;;;1.90;;
21905;SDS011;11117;48.644;9.006;2022-07-18T06:36:32;1.98;;;1.63;;
21905;SDS011;11117;48.644;9.006;2022-07-18T06:39:12;2.70;;;1.70;;
21905;SDS011;11117;48.644;9.006;2022-07-18T06:41:41;2.53;;;1.67;;
21905;SDS011;11117;48.644;9.006;2022-07-18T06:44:27;2.92;;;1.80;;
21905;SDS011;11117;48.644;9.006;2022-07-18T06:46:57;2.83;;;1.67;;
21905;SDS011;11117;48.644;9.006;2022-07-18T06:49:42;3.70;;;1.85;;
21905;SDS011;11117;48.644;9.006;2022-07-18T06:52:11;3.17;;;1.90;;
21905;SDS011;11117;48.644;9.006;2022-07-18T06:55:00;4.15;;;1.85;;
21905;SDS011;11117;48.644;9.006;2022-07-18T07:00:27;7.40;;;1.83;;
21905;SDS011;11117;48.644;9.006;2022-07-18T07:03:32;3.05;;;1.65;;
21905;SDS011;11117;48.644;9.006;2022-07-18T07:06:01;5.25;;;1.85;;
21905;SDS011;11117;48.644;9.006;2022-07-18T07:08:27;5.45;;;1.80;;
21905;SDS011;11117;48.644;9.006;2022-07-18T07:10:56;4.25;;;2.08;;
21905;SDS011;11117;48.644;9.006;2022-07-18T07:13:24;3.85;;;1.80;;
21905;SDS011;11117;48.644;9.006;2022-07-18T07:15:50;3.25;;;1.80;;
21905;SDS011;11117;48.644;9.006;2022-07-18T07:18:21;3.35;;;1.85;;
21905;SDS011;11117;48.644;9.006;2022-07-18T07:20:50;3.53;;;1.90;;
21905;SDS011;11117;48.644;9.006;2022-07-18T07:23:15;4.63;;;1.70;;
21905;SDS011;11117;48.644;9.006;2022-07-18T07:25:41;7.25;;;1.80;;
21905;SDS011;11117;48.644;9.006;2022-07-18T07:28:06;3.67;;;2.10;;
21905;SDS011;11117;48.644;9.006;2022-07-18T07:30:33;5.65;;;1.90;;
21905;SDS011;11117;48.644;9.006;2022-07-18T07:32:59;3.35;;;1.63;;
21905;SDS011;11117;48.644;9.006;2022-07-18T07:35:26;5.30;;;1.80;;
21905;SDS011;11117;48.644;9.006;2022-07-18T07:37:56;7.47;;;1.77;;
21905;SDS011;11117;48.644;9.006;2022-07-18T07:40:24;5.53;;;1.90;;
21905;SDS011;11117;48.644;9.006;2022-07-18T07:42:50;9.48;;;1.80;;
21905;SDS011;11117;48.644;9.006;2022-07-18T07:45:22;1.95;;;1.52;;
21905;SDS011;11117;48.644;9.006;2022-07-18T07:47:54;3.95;;;1.80;;
21905;SDS011;11117;48.644;9.006;2022-07-18T07:50:40;8.13;;;1.95;;
21905;SDS011;11117;48.644;9.006;2022-07-18T07:53:17;2.50;;;1.85;;
21905;SDS011;11117;48.644;9.006;2022-07-18T07:55:50;7.50;;;2.03;;
21905;SDS011;11117;48.644;9.006;2022-07-18T07:58:19;7.45;;;1.65;;
21905;SDS011;11117;48.644;9.006;2022-07-18T08:01:00;3.30;;;1.67;;
21905;SDS011;11117;48.644;9.006;2022-07-18T08:03:37;3.25;;;1.80;;
21905;SDS011;11117;48.644;9.006;2022-07-18T08:06:13;5.68;;;1.77;;
21905;SDS011;11117;48.644;9.006;2022-07-18T08:09:56;5.88;;;2.05;;
21905;SDS011;11117;48.644;9.006;2022-07-18T08:11:56;9.32;;;2.00;;
21905;SDS011;11117;48.644;9.006;2022-07-18T08:14:22;7.90;;;2.10;;
21905;SDS011;11117;48.644;9.006;2022-07-18T08:19:57;4.93;;;2.10;;
21905;SDS011;11117;48.644;9.006;2022-07-18T08:22:23;9.23;;;2.45;;
21905;SDS011;11117;48.644;9.006;2022-07-18T08:24:48;4.63;;;2.13;;
21905;SDS011;11117;48.644;9.006;2022-07-18T08:27:14;3.30;;;2.28;;
21905;SDS011;11117;48.644;9.006;2022-07-18T08:29:40;7.97;;;2.15;;
21905;SDS011;11117;48.644;9.006;2022-07-18T08:32:05;4.72;;;2.25;;
21905;SDS011;11117;48.644;9.006;2022-07-18T08:34:31;2.30;;;1.65;;
21905;SDS011;11117;48.644;9.006;2022-07-18T08:36:56;2.78;;;1.90;;
21905;SDS011;11117;48.644;9.006;2022-07-18T08:39:22;3.42;;;1.70;;
21905;SDS011;11117;48.644;9.006;2022-07-18T08:41:48;6.82;;;1.80;;
21905;SDS011;11117;48.644;9.006;2022-07-18T08:44:15;3.65;;;1.60;;
21905;SDS011;11117;48.644;9.006;2022-07-18T08:46:41;6.18;;;2.00;;
21905;SDS011;11117;48.644;9.006;2022-07-18T08:49:13;5.55;;;1.88;;
21905;SDS011;11117;48.644;9.006;2022-07-18T08:55:23;3.78;;;1.70;;
21905;SDS011;11117;48.644;9.006;2022-07-18T08:57:55;3.25;;;1.67;;
21905;SDS011;11117;48.644;9.006;2022-07-18T09:00:26;5.30;;;1.77;;
21905;SDS011;11117;48.644;9.006;2022-07-18T09:03:06;4.57;;;1.60;;
21905;SDS011;11117;48.644;9.006;2022-07-18T09:05:56;2.47;;;1.70;;
21905;SDS011;11117;48.644;9.006;2022-07-18T09:11:48;3.40;;;1.40;;
21905;SDS011;11117;48.644;9.006;2022-07-18T09:17:21;3.38;;;1.60;;
21905;SDS011;11117;48.644;9.006;2022-07-18T09:20:05;3.90;;;1.50;;
21905;SDS011;11117;48.644;9.006;2022-07-18T09:22:33;2.28;;;1.60;;
21905;SDS011;11117;48.644;9.006;2022-07-18T09:25:09;2.42;;;1.73;;
21905;SDS011;11117;48.644;9.006;2022-07-18T09:27:37;2.58;;;1.65;;
21905;SDS011;11117;48.644;9.006;2022-07-18T09:32:45;1.85;;;1.60;;
21905;SDS011;11117;48.644;9.006;2022-07-18T09:35:14;6.07;;;1.60;;
21905;SDS011;11117;48.644;9.006;2022-07-18T09:40:26;2.65;;;1.70;;
21905;SDS011;11117;48.644;9.006;2022-07-18T09:42:53;4.10;;;1.85;;
21905;SDS011;11117;48.644;9.006;2022-07-18T09:45:27;3.97;;;1.65;;
21905;SDS011;11117;48.644;9.006;2022-07-18T09:48:02;1.90;;;1.50;;
21905;SDS011;11117;48.644;9.006;2022-07-18T09:50:33;4.97;;;1.40;;
21905;SDS011;11117;48.644;9.006;2022-07-18T09:55:31;2.65;;;1.60;;
21905;SDS011;11117;48.644;9.006;2022-07-18T09:57:58;1.60;;;1.50;;
21905;SDS011;11117;48.644;9.006;2022-07-18T10:00:26;2.15;;;1.40;;
21905;SDS011;11117;48.644;9.006;2022-07-18T10:02:54;2.13;;;1.60;;
21905;SDS011;11117;48.644;9.006;2022-07-18T10:05:19;1.40;;;1.30;;
21905;SDS011;11117;48.644;9.006;2022-07-18T10:07:45;1.85;;;1.55;;
21905;SDS011;11117;48.644;9.006;2022-07-18T10:10:13;2.47;;;1.65;;
21905;SDS011;11117;48.644;9.006;2022-07-18T10:12:40;1.50;;;1.30;;
21905;SDS011;11117;48.644;9.006;2022-07-18T10:15:10;2.33;;;1.38;;
21905;SDS011;11117;48.644;9.006;2022-07-18T10:17:39;1.67;;;1.38;;
21905;SDS011;11117;48.644;9.006;2022-07-18T10:20:31;2.05;;;1.65;;
21905;SDS011;11117;48.644;9.006;2022-07-18T10:23:17;5.25;;;1.60;;
21905;SDS011;11117;48.644;9.006;2022-07-18T10:29:08;1.42;;;1.25;;
21905;SDS011;11117;48.644;9.006;2022-07-18T10:31:38;1.27;;;1.17;;
21905;SDS011;11117;48.644;9.006;2022-07-18T10:34:15;2.90;;;1.20;;
21905;SDS011;11117;48.644;9.006;2022-07-18T10:39:18;1.20;;;1.10;;
21905;SDS011;11117;48.644;9.006;2022-07-18T10:57:38;1.80;;;1.50;;
21905;SDS011;11117;48.644;9.006;2022-07-18T11:02:32;2.30;;;1.40;;
21905;SDS011;11117;48.644;9.006;2022-07-18T11:05:02;3.10;;;1.30;;
21905;SDS011;11117;48.644;9.006;2022-07-18T11:21:36;2.70;;;1.40;;
21905;SDS011;11117;48.644;9.006;2022-07-18T11:24:02;1.48;;;1.30;;
21905;SDS011;11117;48.644;9.006;2022-07-18T11:29:53;3.05;;;1.38;;
21905;SDS011;11117;48.644;9.006;2022-07-18T11:36:14;2.17;;;1.20;;
21905;SDS011;11117;48.644;9.006;2022-07-18T11:38:47;2.05;;;1.20;;
21905;SDS011;11117;48.644;9.006;2022-07-18T11:41:16;3.53;;;1.15;;
21905;SDS011;11117;48.644;9.006;2022-07-18T11:43:46;1.98;;;1.30;;
21905;SDS011;11117;48.644;9.006;2022-07-18T11:46:20;3.70;;;1.40;;
21905;SDS011;11117;48.644;9.006;2022-07-18T11:48:47;1.48;;;1.02;;
21905;SDS011;11117;48.644;9.006;2022-07-18T11:51:21;3.10;;;1.33;;
21905;SDS011;11117;48.644;9.006;2022-07-18T11:53:51;2.63;;;1.30;;
21905;SDS011;11117;48.644;9.006;2022-07-18T11:56:20;2.60;;;1.33;;
21905;SDS011;11117;48.644;9.006;2022-07-18T11:58:48;2.92;;;1.00;;
21905;SDS011;11117;48.644;9.006;2022-07-18T12:01:15;1.92;;;1.17;;
21905;SDS011;11117;48.644;9.006;2022-07-18T12:03:49;1.30;;;1.20;;
21905;SDS011;11117;48.644;9.006;2022-07-18T12:06:24;2.97;;;1.30;;
21905;SDS011;11117;48.644;9.006;2022-07-18T12:08:51;2.83;;;1.35;;
21905;SDS011;11117;48.644;9.006;2022-07-18T12:11:25;1.40;;;1.30;;
21905;SDS011;11117;48.644;9.006;2022-07-18T12:13:56;2.47;;;1.30;;
21905;SDS011;11117;48.644;9.006;2022-07-18T12:19:14;1.25;;;1.13;;
21905;SDS011;11117;48.644;9.006;2022-07-18T12:35:03;1.20;;;1.10;;
21905;SDS011;11117;48.644;9.006;2022-07-18T12:37:31;1.38;;;0.95;;
21905;SDS011;11117;48.644;9.006;2022-07-18T12:39:58;1.27;;;1.17;;
21905;SDS011;11117;48.644;9.006;2022-07-18T12:42:28;1.23;;;1.13;;
21905;SDS011;11117;48.644;9.006;2022-07-18T12:44:55;1.55;;;1.10;;
21905;SDS011;11117;48.644;9.006;2022-07-18T12:47:21;3.55;;;1.27;;
21905;SDS011;11117;48.644;9.006;2022-07-18T12:49:49;2.65;;;1.30;;
21905;SDS011;11117;48.644;9.006;2022-07-18T12:52:14;1.75;;;1.08;;
21905;SDS011;11117;48.644;9.006;2022-07-18T12:54:41;1.25;;;1.15;;
21905;SDS011;11117;48.644;9.006;2022-07-18T12:57:07;1.70;;;1.13;;
21905;SDS011;11117;48.644;9.006;2022-07-18T12:59:32;3.80;;;1.20;;
21905;SDS011;11117;48.644;9.006;2022-07-18T13:01:58;2.15;;;1.23;;
21905;SDS011;11117;48.644;9.006;2022-07-18T13:04:23;2.50;;;1.30;;
21905;SDS011;11117;48.644;9.006;2022-07-18T13:06:49;1.45;;;1.05;;
21905;SDS011;11117;48.644;9.006;2022-07-18T13:09:15;1.25;;;1.15;;
21905;SDS011;11117;48.644;9.006;2022-07-18T13:11:40;2.88;;;1.17;;
21905;SDS011;11117;48.644;9.006;2022-07-18T13:14:06;1.67;;;1.30;;
21905;SDS011;11117;48.644;9.006;2022-07-18T13:16:32;1.80;;;1.10;;
21905;SDS011;11117;48.644;9.006;2022-07-18T13:18:57;2.05;;;1.17;;
21905;SDS011;11117;48.644;9.006;2022-07-18T13:21:25;1.85;;;1.20;;
21905;SDS011;11117;48.644;9.006;2022-07-18T13:23:53;2.40;;;1.25;;
21905;SDS011;11117;48.644;9.006;2022-07-18T13:26:18;2.15;;;1.15;;
21905;SDS011;11117;48.644;9.006;2022-07-18T13:28:44;4.07;;;1.30;;
21905;SDS011;11117;48.644;9.006;2022-07-18T13:31:09;1.95;;;1.42;;
21905;SDS011;11117;48.644;9.006;2022-07-18T13:33:35;1.75;;;1.30;;
21905;SDS011;11117;48.644;9.006;2022-07-18T13:36:01;1.83;;;1.35;;
21905;SDS011;11117;48.644;9.006;2022-07-18T13:38:27;1.48;;;1.30;;
21905;SDS011;11117;48.644;9.006;2022-07-18T13:40:52;1.98;;;1.30;;
21905;SDS011;11117;48.644;9.006;2022-07-18T13:43:18;2.25;;;1.30;;
21905;SDS011;11117;48.644;9.006;2022-07-18T13:45:44;5.10;;;1.30;;
21905;SDS011;11117;48.644;9.006;2022-07-18T13:48:10;4.82;;;1.35;;
21905;SDS011;11117;48.644;9.006;2022-07-18T13:50:35;2.40;;;1.45;;
21905;SDS011;11117;48.644;9.006;2022-07-18T13:53:01;1.98;;;1.20;;
21905;SDS011;11117;48.644;9.006;2022-07-18T13:55:30;3.53;;;1.27;;
21905;SDS011;11117;48.644;9.006;2022-07-18T13:57:55;3.75;;;1.23;;
21905;SDS011;11117;48.644;9.006;2022-07-18T14:00:21;4.30;;;1.25;;
21905;SDS011;11117;48.644;9.006;2022-07-18T14:02:52;1.45;;;1.17;;
21905;SDS011;11117;48.644;9.006;2022-07-18T14:05:18;2.38;;;1.52;;
21905;SDS011;11117;48.644;9.006;2022-07-18T14:07:44;5.35;;;1.23;;
21905;SDS011;11117;48.644;9.006;2022-07-18T14:10:10;4.55;;;1.50;;
21905;SDS011;11117;48.644;9.006;2022-07-18T14:12:38;3.58;;;1.40;;
21905;SDS011;11117;48.644;9.006;2022-07-18T14:15:04;1.70;;;1.30;;
21905;SDS011;11117;48.644;9.006;2022-07-18T14:17:30;4.07;;;1.30;;
21905;SDS011;11117;48.644;9.006;2022-07-18T14:19:56;6.05;;;1.58;;
21905;SDS011;11117;48.644;9.006;2022-07-18T14:22:21;3.85;;;1.58;;
21905;SDS011;11117;48.644;9.006;2022-07-18T14:24:47;2.53;;;1.40;;
21905;SDS011;11117;48.644;9.006;2022-07-18T14:27:15;4.78;;;1.40;;
21905;SDS011;11117;48.644;9.006;2022-07-18T14:29:41;3.55;;;1.33;;
21905;SDS011;11117;48.644;9.006;2022-07-18T14:32:07;5.20;;;1.58;;
21905;SDS011;11117;48.644;9.006;2022-07-18T14:34:33;2.63;;;1.52;;
21905;SDS011;11117;48.644;9.006;2022-07-18T14:36:59;3.90;;;1.38;;
21905;SDS011;11117;48.644;9.006;2022-07-18T14:39:24;3.55;;;1.50;;
21905;SDS011;11117;48.644;9.006;2022-07-18T14:41:50;1.42;;;1.33;;
21905;SDS011;11117;48.644;9.006;2022-07-18T14:44:15;3.67;;;1.50;;
21905;SDS011;11117;48.644;9.006;2022-07-18T14:46:41;3.10;;;1.50;;
21905;SDS011;11117;48.644;9.006;2022-07-18T14:49:08;3.35;;;1.40;;
21905;SDS011;11117;48.644;9.006;2022-07-18T14:51:34;4.75;;;1.50;;
21905;SDS011;11117;48.644;9.006;2022-07-18T14:53:59;1.83;;;1.35;;
21905;SDS011;11117;48.644;9.006;2022-07-18T14:56:28;8.63;;;1.67;;
21905;SDS011;11117;48.644;9.006;2022-07-18T14:58:53;3.08;;;1.30;;
21905;SDS011;11117;48.644;9.006;2022-07-18T15:01:19;4.07;;;1.45;;
21905;SDS011;11117;48.644;9.006;2022-07-18T15:03:45;2.55;;;1.40;;
21905;SDS011;11117;48.644;9.006;2022-07-18T15:06:11;1.45;;;1.30;;
21905;SDS011;11117;48.644;9.006;2022-07-18T15:08:40;3.47;;;1.50;;
21905;SDS011;11117;48.644;9.006;2022-07-18T15:11:06;3.58;;;1.55;;
21905;SDS011;11117;48.644;9.006;2022-07-18T15:13:34;4.13;;;1.55;;
21905;SDS011;11117;48.644;9.006;2022-07-18T15:16:00;3.65;;;1.60;;
21905;SDS011;11117;48.644;9.006;2022-07-18T15:18:26;6.13;;;1.40;;
21905;SDS011;11117;48.644;9.006;2022-07-18T15:20:51;3.30;;;1.27;;
21905;SDS011;11117;48.644;9.006;2022-07-18T15:26:48;6.10;;;1.83;;
21905;SDS011;11117;48.644;9.006;2022-07-18T15:33:00;3.17;;;1.65;;
21905;SDS011;11117;48.644;9.006;2022-07-18T15:35:26;4.90;;;1.70;;
21905;SDS011;11117;48.644;9.006;2022-07-18T15:37:54;4.80;;;1.48;;
21905;SDS011;11117;48.644;9.006;2022-07-18T15:40:20;7.03;;;1.67;;
21905;SDS011;11117;48.644;9.006;2022-07-18T15:42:46;2.17;;;1.30;;
21905;SDS011;11117;48.644;9.006;2022-07-18T15:45:11;3.47;;;1.45;;
21905;SDS011;11117;48.644;9.006;2022-07-18T15:47:37;2.67;;;1.75;;
21905;SDS011;11117;48.644;9.006;2022-07-18T15:50:02;6.72;;;1.50;;
21905;SDS011;11117;48.644;9.006;2022-07-18T15:52:28;3.22;;;1.55;;
21905;SDS011;11117;48.644;9.006;2022-07-18T15:54:54;2.63;;;1.30;;
21905;SDS011;11117;48.644;9.006;2022-07-18T15:57:19;4.63;;;1.30;;
21905;SDS011;11117;48.644;9.006;2022-07-18T15:59:45;3.55;;;1.40;;
21905;SDS011;11117;48.644;9.006;2022-07-18T16:02:10;2.95;;;1.30;;
21905;SDS011;11117;48.644;9.006;2022-07-18T16:04:37;4.30;;;1.63;;
21905;SDS011;11117;48.644;9.006;2022-07-18T16:07:03;5.20;;;1.52;;
21905;SDS011;11117;48.644;9.006;2022-07-18T16:09:28;3.35;;;1.50;;
21905;SDS011;11117;48.644;9.006;2022-07-18T16:11:54;4.18;;;1.60;;
21905;SDS011;11117;48.644;9.006;2022-07-18T16:14:19;2.88;;;1.50;;
21905;SDS011;11117;48.644;9.006;2022-07-18T16:16:45;2.38;;;1.48;;
21905;SDS011;11117;48.644;9.006;2022-07-18T16:19:11;2.05;;;1.60;;
21905;SDS011;11117;48.644;9.006;2022-07-18T16:21:39;4.80;;;2.58;;
21905;SDS011;11117;48.644;9.006;2022-07-18T16:24:08;3.28;;;1.58;;
21905;SDS011;11117;48.644;9.006;2022-07-18T16:26:37;2.83;;;1.50;;
21905;SDS011;11117;48.644;9.006;2022-07-18T16:29:06;3.00;;;1.40;;
21905;SDS011;11117;48.644;9.006;2022-07-18T16:31:32;3.80;;;1.50;;
21905;SDS011;11117;48.644;9.006;2022-07-18T16:33:58;2.20;;;1.55;;
21905;SDS011;11117;48.644;9.006;2022-07-18T16:36:26;1.52;;;1.33;;
21905;SDS011;11117;48.644;9.006;2022-07-18T16:38:52;3.40;;;1.38;;